createdAt,value
2022-09-07T00:07:06.000Z,13.50
2022-09-07T00:17:06.000Z,10.80
2022-09-07T00:27:06.000Z,11.30
2022-09-07T00:37:06.000Z,10.70
2022-09-07T00:47:06.000Z,9.00
2022-09-07T00:57:06.000Z,8.70
2022-09-07T01:17:05.000Z,10.30
2022-09-07T01:27:05.000Z,12.40
2022-09-07T01:37:05.000Z,12.30
2022-09-07T01:47:05.000Z,12.30
2022-09-07T01:57:05.000Z,11.60
2022-09-07T02:07:05.000Z,11.00
2022-09-07T02:17:04.000Z,10.80
2022-09-07T02:27:04.000Z,9.50
2022-09-07T02:47:04.000Z,16.50
2022-09-07T02:57:04.000Z,12.50
2022-09-07T03:07:04.000Z,10.70
2022-09-07T03:17:04.000Z,11.00
2022-09-07T03:27:03.000Z,7.70
2022-09-07T03:37:03.000Z,10.80
2022-09-07T03:47:03.000Z,13.90
2022-09-07T03:57:03.000Z,12.10
2022-09-07T04:17:03.000Z,11.30
2022-09-07T04:27:03.000Z,13.70
2022-09-07T04:37:02.000Z,10.50
2022-09-07T04:47:02.000Z,10.50
2022-09-07T04:57:02.000Z,13.00
2022-09-07T05:07:02.000Z,11.10
2022-09-07T05:17:02.000Z,10.90
2022-09-07T05:27:02.000Z,10.40
2022-09-07T05:47:01.000Z,12.50
2022-09-07T05:57:01.000Z,10.10
2022-09-07T05:57:01.000Z,10.10
2022-09-07T06:07:01.000Z,10.10
2022-09-07T06:17:01.000Z,9.80
2022-09-07T06:27:01.000Z,10.10
2022-09-07T06:37:01.000Z,8.00
2022-09-07T06:47:01.000Z,7.90
2022-09-07T06:57:00.000Z,4.40
2022-09-07T07:17:00.000Z,4.50
2022-09-07T07:27:00.000Z,3.80
2022-09-07T07:37:00.000Z,3.20
2022-09-07T07:47:00.000Z,2.40
2022-09-07T07:57:00.000Z,2.10
2022-09-07T08:07:00.000Z,2.60
2022-09-07T08:16:59.000Z,2.60
2022-09-07T08:26:59.000Z,2.00
2022-09-07T08:46:59.000Z,2.80
2022-09-07T08:46:59.000Z,2.80
2022-09-07T08:56:59.000Z,2.30
2022-09-07T09:06:59.000Z,2.80
2022-09-07T09:16:59.000Z,2.10
2022-09-07T09:26:58.000Z,2.20
2022-09-07T09:36:58.000Z,2.60
2022-09-07T09:46:58.000Z,2.40
2022-09-07T09:56:58.000Z,2.20
2022-09-07T10:16:58.000Z,2.10
2022-09-07T10:26:58.000Z,1.90
2022-09-07T10:36:57.000Z,2.60
2022-09-07T10:46:57.000Z,1.80
2022-09-07T10:56:57.000Z,1.60
2022-09-07T11:06:57.000Z,1.30
2022-09-07T11:16:57.000Z,1.50
2022-09-07T11:26:57.000Z,3.00
2022-09-07T11:46:56.000Z,2.20
2022-09-07T11:56:56.000Z,1.80
2022-09-07T12:06:56.000Z,1.70
2022-09-07T12:16:56.000Z,1.60
2022-09-07T12:26:56.000Z,1.90
2022-09-07T12:36:56.000Z,1.80
2022-09-07T13:07:13.000Z,1.60
2022-09-07T13:07:13.000Z,1.90
2022-09-07T13:17:13.000Z,1.60
2022-09-07T13:27:13.000Z,1.60
2022-09-07T13:37:13.000Z,1.30
2022-09-07T13:47:12.000Z,1.50
2022-09-07T13:57:12.000Z,1.50
2022-09-07T14:07:12.000Z,1.50
2022-09-07T14:17:12.000Z,1.70
2022-09-07T14:37:12.000Z,1.40
2022-09-07T14:47:12.000Z,1.70
2022-09-07T14:57:12.000Z,1.40
2022-09-07T15:07:11.000Z,1.80
2022-09-07T15:17:11.000Z,1.00
2022-09-07T15:57:28.000Z,1.90
2022-09-07T16:17:45.000Z,1.50
2022-09-07T16:17:45.000Z,1.90
2022-09-07T16:27:45.000Z,1.90
2022-09-07T16:37:45.000Z,1.90
2022-09-07T16:47:45.000Z,2.10
2022-09-07T16:57:44.000Z,1.60
2022-09-07T17:07:44.000Z,1.50
2022-09-07T17:17:44.000Z,2.50
2022-09-07T17:27:44.000Z,1.10
2022-09-07T17:47:44.000Z,1.90
2022-09-07T17:57:44.000Z,1.40
2022-09-07T18:07:44.000Z,1.50
2022-09-07T18:17:43.000Z,1.90
2022-09-07T18:17:43.000Z,1.90
2022-09-07T18:27:43.000Z,1.80
2022-09-07T18:37:43.000Z,1.60
2022-09-07T18:47:43.000Z,1.80
2022-09-07T18:57:43.000Z,1.90
2022-09-07T19:17:43.000Z,2.90
2022-09-07T19:27:42.000Z,1.90
2022-09-07T19:37:42.000Z,1.50
2022-09-07T19:47:42.000Z,1.30
2022-09-07T19:57:42.000Z,1.00
2022-09-07T20:07:42.000Z,1.40
2022-09-07T20:17:42.000Z,1.60
2022-09-07T20:27:42.000Z,1.60
2022-09-07T20:47:41.000Z,2.20
2022-09-07T20:57:41.000Z,1.80
2022-09-07T21:07:41.000Z,2.20
2022-09-07T21:17:41.000Z,1.70
2022-09-07T21:27:41.000Z,2.10
2022-09-07T21:37:41.000Z,2.80
2022-09-07T21:47:40.000Z,2.70
2022-09-07T21:57:40.000Z,2.00
2022-09-07T22:17:40.000Z,2.40
2022-09-07T22:27:40.000Z,2.00
2022-09-07T22:37:40.000Z,2.30
2022-09-07T22:47:40.000Z,2.60
2022-09-07T22:57:40.000Z,2.30
2022-09-07T23:07:39.000Z,2.50
2022-09-07T23:17:39.000Z,3.60
2022-09-07T23:27:39.000Z,2.40
2022-09-07T23:47:39.000Z,2.30
2022-09-07T23:57:39.000Z,2.50
